Panda — H8NH — position and weather

sailwx.info

Track history (hours):
 
Tides and Currents Weather Stations Pressure Air Temp Water Temp Dewpoint Dewpoint Depression Visibility Wind Speed Wind Dir Waves Ship Positions

Panda

Last reported at 2015-Apr-18 07:05 UTC. Time now 2015-Apr-18 15:14 UTC.
Position N 40°01' E 026°07'.

Length 171 m; draft 6 m.

Type: Cargo ship. MMSI: 352528000.

Date/timePositionNaut miles runAvg speedWind from/ knotsBaromVisibWave heightAir tempDewpointWater temp
2015-Apr-18 07:05N 40°01' E 026°07'157 8.9
2015-Apr-17 13:30N 41°16' E 029°09'  
2015-Apr-12 07:27N 46°30' E 030°44'0 0.0
2015-Apr-12 06:27N 46°30' E 030°44'294 7.9
2015-Apr-10 17:21N 41°43' E 029°21'2311.4
2015-Apr-10 15:18N 41°20' E 029°13'23 8.0
2015-Apr-10 12:28N 40°60' E 028°60'8 8.7
2015-Apr-10 11:33N 40°53' E 028°54'1210.6
2015-Apr-10 10:26N 40°48' E 028°40'910.0
2015-Apr-10 09:33N 40°44' E 028°30'1 0.6
2015-Apr-10 07:05N 40°44' E 028°31'2 2.2
2015-Apr-10 06:13N 40°44' E 028°34'1 1.8
2015-Apr-10 05:32N 40°45' E 028°35'2 2.1
2015-Apr-10 04:31N 40°46' E 028°38'3 2.3
2015-Apr-10 03:22N 40°47' E 028°41'2 1.9
2015-Apr-10 02:29N 40°48' E 028°43'3 2.8
2015-Apr-10 01:33N 40°48' E 028°46'3 3.2
2015-Apr-10 00:33N 40°48' E 028°50'2 2.1
2015-Apr-09 23:33N 40°47' E 028°53'4 3.9
2015-Apr-09 22:33N 40°44' E 028°49'3 3.1
2015-Apr-09 21:33N 40°42' E 028°47'4 4.4
2015-Apr-09 20:33N 40°38' E 028°50'0 0.3
2015-Apr-09 19:33N 40°38' E 028°50'4 3.8
2015-Apr-09 18:33N 40°42' E 028°52'3 3.3
2015-Apr-09 17:33N 40°45' E 028°53'3 3.2
2015-Apr-09 16:30N 40°48' E 028°54'4 3.9
2015-Apr-09 15:33N 40°52' E 028°55'6 2.4
2015-Apr-09 13:13N 40°57' E 028°56'0 0.0
2015-Apr-09 12:32N 40°57' E 028°56'0 0.4
2015-Apr-09 11:33N 40°57' E 028°56'5 4.8
2015-Apr-09 10:33N 40°52' E 028°54'9 8.8
2015-Apr-09 09:33N 40°50' E 028°43'  
Track history (hours):
 
Tides and Currents Weather Stations Pressure Air Temp Water Temp Dewpoint Dewpoint Depression Visibility Wind Speed Wind Dir Waves Ship Positions

Panda

Last reported at 2015-Apr-18 07:05 UTC. Time now 2015-Apr-18 15:14 UTC.
Position N 40°01' E 026°07'.

Length 171 m; draft 6 m.

Type: Cargo ship. MMSI: 352528000.

Date/timePositionNaut miles runAvg speedWind from/ knotsBaromVisibWave heightAir tempDewpointWater temp
2015-Apr-18 07:05N 40°01' E 026°07'157 8.9
2015-Apr-17 13:30N 41°16' E 029°09'  
2015-Apr-12 07:27N 46°30' E 030°44'0 0.0
2015-Apr-12 06:27N 46°30' E 030°44'294 7.9
2015-Apr-10 17:21N 41°43' E 029°21'2311.4
2015-Apr-10 15:18N 41°20' E 029°13'23 8.0
2015-Apr-10 12:28N 40°60' E 028°60'8 8.7
2015-Apr-10 11:33N 40°53' E 028°54'1210.6
2015-Apr-10 10:26N 40°48' E 028°40'910.0
2015-Apr-10 09:33N 40°44' E 028°30'1 0.6
2015-Apr-10 07:05N 40°44' E 028°31'2 2.2
2015-Apr-10 06:13N 40°44' E 028°34'1 1.8
2015-Apr-10 05:32N 40°45' E 028°35'2 2.1
2015-Apr-10 04:31N 40°46' E 028°38'3 2.3
2015-Apr-10 03:22N 40°47' E 028°41'2 1.9
2015-Apr-10 02:29N 40°48' E 028°43'3 2.8
2015-Apr-10 01:33N 40°48' E 028°46'3 3.2
2015-Apr-10 00:33N 40°48' E 028°50'2 2.1
2015-Apr-09 23:33N 40°47' E 028°53'4 3.9
2015-Apr-09 22:33N 40°44' E 028°49'3 3.1
2015-Apr-09 21:33N 40°42' E 028°47'4 4.4
2015-Apr-09 20:33N 40°38' E 028°50'0 0.3
2015-Apr-09 19:33N 40°38' E 028°50'4 3.8
2015-Apr-09 18:33N 40°42' E 028°52'3 3.3
2015-Apr-09 17:33N 40°45' E 028°53'3 3.2
2015-Apr-09 16:30N 40°48' E 028°54'4 3.9
2015-Apr-09 15:33N 40°52' E 028°55'6 2.4
2015-Apr-09 13:13N 40°57' E 028°56'0 0.0
2015-Apr-09 12:32N 40°57' E 028°56'0 0.4
2015-Apr-09 11:33N 40°57' E 028°56'5 4.8
2015-Apr-09 10:33N 40°52' E 028°54'9 8.8
2015-Apr-09 09:33N 40°50' E 028°43'  

Dump ship's entire track history